Time;durP1;ratioP1;P1;durP2;ratioP2;P2;SDS_P1;SDS_P2;PMS_P1;PMS_P2;Temp;Humidity;BMP_temperature;BMP_pressure;BME280_temperature;BME280_humidity;BME280_pressure;Samples;Min_cycle;Max_cycle;Signal;HPM_P1;HPM_P2
2021/03/18 00:00:43;;;;;;;18.98;6.93;;;;;;;;;;4985666;28;20073;-82
2021/03/18 00:03:12;;;;;;;25.60;7.50;;;;;;;;;;5002378;28;20095;-83
2021/03/18 00:05:38;;;;;;;16.83;6.53;;;;;;;;;;5002437;28;20062;-83
2021/03/18 00:08:05;;;;;;;16.75;5.40;;;;;;;;;;5001114;28;20074;-83
2021/03/18 00:10:31;;;;;;;17.13;5.68;;;;;;;;;;5001931;28;20137;-83
2021/03/18 00:12:57;;;;;;;12.50;5.28;;;;;;;;;;4984715;28;20054;-83
2021/03/18 00:15:24;;;;;;;17.50;5.50;;;;;;;;;;4986454;28;20868;-82
2021/03/18 00:17:50;;;;;;;9.68;5.15;;;;;;;;;;4983165;28;20144;-83
2021/03/18 00:20:17;;;;;;;18.98;5.13;;;;;;;;;;4985045;28;20432;-80
2021/03/18 00:22:44;;;;;;;14.38;5.07;;;;;;;;;;5002815;28;20058;-81
2021/03/18 00:25:11;;;;;;;9.15;4.78;;;;;;;;;;4976130;28;20551;-80
2021/03/18 00:27:39;;;;;;;15.90;5.28;;;;;;;;;;4985120;28;20425;-80
2021/03/18 00:30:06;;;;;;;12.77;4.80;;;;;;;;;;5001272;28;20038;-85
2021/03/18 00:32:33;;;;;;;16.27;5.20;;;;;;;;;;5003626;28;20084;-80
2021/03/18 00:34:59;;;;;;;10.95;4.53;;;;;;;;;;4983703;28;20042;-82
2021/03/18 00:37:25;;;;;;;15.55;4.82;;;;;;;;;;4993368;28;20056;-82
2021/03/18 00:39:54;;;;;;;15.00;4.90;;;;;;;;;;4990561;28;20069;-81
2021/03/18 00:42:21;;;;;;;14.88;4.10;;;;;;;;;;5006031;28;20473;-82
2021/03/18 00:44:47;;;;;;;11.98;4.90;;;;;;;;;;4983259;28;20050;-82
2021/03/18 00:47:13;;;;;;;18.88;5.43;;;;;;;;;;4998077;28;20054;-82
2021/03/18 00:49:39;;;;;;;13.90;4.68;;;;;;;;;;4983919;28;20049;-82
2021/03/18 00:52:06;;;;;;;14.50;4.80;;;;;;;;;;4992934;28;20044;-82
2021/03/18 00:54:32;;;;;;;12.00;4.55;;;;;;;;;;4992685;28;20053;-82
2021/03/18 00:56:59;;;;;;;8.43;4.65;;;;;;;;;;4978629;28;20034;-82
2021/03/18 00:59:25;;;;;;;16.48;5.65;;;;;;;;;;4996908;28;20113;-83
2021/03/18 01:01:51;;;;;;;16.25;5.20;;;;;;;;;;4996412;28;20057;-82
2021/03/18 01:04:17;;;;;;;18.35;5.18;;;;;;;;;;4963793;28;20873;-82
2021/03/18 01:06:44;;;;;;;12.57;5.15;;;;;;;;;;5003456;28;20500;-82
2021/03/18 01:09:10;;;;;;;12.90;4.55;;;;;;;;;;4981188;28;20065;-82
2021/03/18 01:11:37;;;;;;;10.98;5.00;;;;;;;;;;5006992;28;20049;-81
2021/03/18 01:14:08;;;;;;;14.20;5.75;;;;;;;;;;5009223;28;20050;-81
2021/03/18 01:16:40;;;;;;;14.30;6.07;;;;;;;;;;5010723;28;20034;-82
2021/03/18 01:19:09;;;;;;;15.65;6.80;;;;;;;;;;5004519;28;20105;-82
2021/03/18 01:21:43;;;;;;;21.90;7.43;;;;;;;;;;5007149;28;20038;-83
2021/03/18 01:24:09;;;;;;;10.57;5.88;;;;;;;;;;5002739;28;20124;-82
2021/03/18 01:26:36;;;;;;;18.13;6.57;;;;;;;;;;4986987;28;20041;-81
2021/03/18 01:29:02;;;;;;;14.88;6.70;;;;;;;;;;4990053;28;20103;-81
2021/03/18 01:31:29;;;;;;;14.43;6.00;;;;;;;;;;4991002;28;20169;-81
2021/03/18 01:33:55;;;;;;;17.45;6.90;;;;;;;;;;4982803;28;20042;-82
2021/03/18 01:36:22;;;;;;;14.15;6.25;;;;;;;;;;4986319;28;20084;-84
2021/03/18 01:38:48;;;;;;;12.77;5.50;;;;;;;;;;4987086;28;20050;-82
2021/03/18 01:41:18;;;;;;;17.45;6.40;;;;;;;;;;4988971;28;20062;-81
2021/03/18 01:43:45;;;;;;;16.98;5.65;;;;;;;;;;4982107;28;20057;-81
2021/03/18 01:46:12;;;;;;;14.40;5.55;;;;;;;;;;4977932;28;20137;-82
2021/03/18 01:48:38;;;;;;;15.90;6.45;;;;;;;;;;4995862;28;20042;-81
2021/03/18 01:51:04;;;;;;;18.33;6.30;;;;;;;;;;4994097;28;20041;-81
2021/03/18 01:53:31;;;;;;;14.10;7.18;;;;;;;;;;4982588;28;20125;-82
2021/03/18 01:55:58;;;;;;;19.88;6.03;;;;;;;;;;4997510;28;20046;-81
2021/03/18 01:58:25;;;;;;;13.90;7.20;;;;;;;;;;5004080;28;20069;-82
2021/03/18 02:00:52;;;;;;;18.98;6.70;;;;;;;;;;4995767;28;20108;-81
2021/03/18 02:03:19;;;;;;;18.67;7.57;;;;;;;;;;4987787;28;20170;-82
2021/03/18 02:05:46;;;;;;;12.93;5.90;;;;;;;;;;4988906;28;20065;-81
2021/03/18 02:08:14;;;;;;;17.17;7.45;;;;;;;;;;5001312;28;20046;-82
2021/03/18 02:10:41;;;;;;;15.75;6.72;;;;;;;;;;5008078;28;20042;-82
2021/03/18 02:13:08;;;;;;;16.45;6.43;;;;;;;;;;4993913;28;20049;-82
2021/03/18 02:15:36;;;;;;;12.88;5.93;;;;;;;;;;5001943;28;20042;-81
2021/03/18 02:18:22;;;;;;;10.13;5.25;;;;;;;;;;4988440;28;20034;-81
2021/03/18 02:21:03;;;;;;;10.95;5.78;;;;;;;;;;4989677;28;20108;-81
2021/03/18 02:23:32;;;;;;;17.48;7.15;;;;;;;;;;4996052;28;20528;-81
2021/03/18 02:26:10;;;;;;;11.77;5.43;;;;;;;;;;5004943;28;20389;-81
2021/03/18 02:28:55;;;;;;;13.35;6.28;;;;;;;;;;4989706;28;20045;-81
2021/03/18 02:31:28;;;;;;;12.32;5.97;;;;;;;;;;4998536;28;20039;-82
2021/03/18 02:34:02;;;;;;;12.38;6.50;;;;;;;;;;5004026;28;20478;-81
2021/03/18 02:36:47;;;;;;;15.02;6.82;;;;;;;;;;4993824;28;20049;-82
2021/03/18 02:39:23;;;;;;;14.82;6.35;;;;;;;;;;4995904;28;20045;-81
2021/03/18 02:41:50;;;;;;;15.32;5.85;;;;;;;;;;4994627;28;20041;-83
2021/03/18 02:44:21;;;;;;;16.70;7.13;;;;;;;;;;4993110;28;20050;-81
2021/03/18 02:46:50;;;;;;;17.50;5.57;;;;;;;;;;5003339;28;20038;-81
2021/03/18 02:49:18;;;;;;;15.75;6.68;;;;;;;;;;4987753;28;20046;-81
2021/03/18 02:51:45;;;;;;;14.35;5.32;;;;;;;;;;5005971;28;20050;-82
2021/03/18 02:54:13;;;;;;;24.10;7.80;;;;;;;;;;5008231;28;20147;-82
2021/03/18 02:56:44;;;;;;;17.80;6.30;;;;;;;;;;5007673;28;20054;-82
2021/03/18 02:59:12;;;;;;;15.07;5.90;;;;;;;;;;5006248;28;20045;-82
2021/03/18 03:01:40;;;;;;;14.73;6.30;;;;;;;;;;4987617;28;20581;-82
2021/03/18 03:04:07;;;;;;;18.00;6.00;;;;;;;;;;4982439;28;20734;-82
2021/03/18 03:06:34;;;;;;;16.63;6.25;;;;;;;;;;4978314;28;20034;-81
2021/03/18 03:09:01;;;;;;;15.43;5.78;;;;;;;;;;4989533;28;20054;-82
2021/03/18 03:11:28;;;;;;;18.42;6.68;;;;;;;;;;4987882;28;20149;-82
2021/03/18 03:13:54;;;;;;;16.65;5.88;;;;;;;;;;4998563;28;20393;-82
2021/03/18 03:16:22;;;;;;;18.63;5.88;;;;;;;;;;4985105;28;20481;-81
2021/03/18 03:18:48;;;;;;;11.73;5.85;;;;;;;;;;5007868;28;20042;-80
2021/03/18 03:21:16;;;;;;;14.02;6.60;;;;;;;;;;5000556;28;20109;-81
2021/03/18 03:23:44;;;;;;;18.17;6.75;;;;;;;;;;4992038;28;20488;-81
2021/03/18 03:26:11;;;;;;;13.13;5.90;;;;;;;;;;5002260;28;20042;-81
2021/03/18 03:28:38;;;;;;;17.90;6.43;;;;;;;;;;4975979;28;20041;-81
2021/03/18 03:31:05;;;;;;;20.48;8.05;;;;;;;;;;4997988;28;20034;-81
2021/03/18 03:33:31;;;;;;;16.10;7.05;;;;;;;;;;4970790;28;20118;-81
2021/03/18 03:35:58;;;;;;;17.88;6.82;;;;;;;;;;5007225;28;20046;-82
2021/03/18 03:38:24;;;;;;;16.73;6.88;;;;;;;;;;5003532;28;20083;-80
2021/03/18 03:40:51;;;;;;;17.95;8.00;;;;;;;;;;4965100;28;20054;-84
2021/03/18 03:43:18;;;;;;;18.42;6.90;;;;;;;;;;4980613;28;20041;-82
2021/03/18 03:45:44;;;;;;;20.13;7.75;;;;;;;;;;4993994;28;20045;-82
2021/03/18 03:48:11;;;;;;;17.80;8.05;;;;;;;;;;4991988;28;20042;-82
2021/03/18 03:50:37;;;;;;;17.73;8.30;;;;;;;;;;5002251;28;20042;-82
2021/03/18 03:53:12;;;;;;;24.38;8.30;;;;;;;;;;5002710;28;20093;-82
2021/03/18 03:55:51;;;;;;;16.40;7.75;;;;;;;;;;4988247;28;20058;-82
2021/03/18 03:58:29;;;;;;;20.98;8.77;;;;;;;;;;4976584;28;20069;-81
2021/03/18 04:01:00;;;;;;;19.75;9.25;;;;;;;;;;4991881;28;20100;-81
2021/03/18 04:03:26;;;;;;;18.20;8.30;;;;;;;;;;4989941;28;20042;-81
2021/03/18 04:05:54;;;;;;;25.00;9.18;;;;;;;;;;4983048;28;20516;-82
2021/03/18 04:08:22;;;;;;;19.08;8.40;;;;;;;;;;5008928;28;20042;-83
2021/03/18 04:10:48;;;;;;;21.48;9.23;;;;;;;;;;4982935;28;20046;-82
2021/03/18 04:13:15;;;;;;;20.30;8.85;;;;;;;;;;4984821;28;20100;-82
2021/03/18 04:15:42;;;;;;;23.88;8.98;;;;;;;;;;4987442;28;20064;-82
2021/03/18 04:18:10;;;;;;;17.73;7.53;;;;;;;;;;5000297;28;20108;-82
2021/03/18 04:20:37;;;;;;;20.60;9.30;;;;;;;;;;5003833;28;20394;-81
2021/03/18 04:23:04;;;;;;;24.02;11.38;;;;;;;;;;4969632;28;20116;-82
2021/03/18 04:25:31;;;;;;;26.08;10.45;;;;;;;;;;4984706;28;20101;-81
2021/03/18 04:27:58;;;;;;;24.17;11.45;;;;;;;;;;4977810;28;20042;-82
2021/03/18 04:30:25;;;;;;;27.65;10.70;;;;;;;;;;4991635;28;20042;-82
2021/03/18 04:32:52;;;;;;;26.65;10.30;;;;;;;;;;4991483;28;20177;-82
2021/03/18 04:35:20;;;;;;;22.90;11.57;;;;;;;;;;4983561;28;20038;-82
2021/03/18 04:37:46;;;;;;;36.67;13.23;;;;;;;;;;4989074;28;20042;-82
2021/03/18 04:40:14;;;;;;;26.48;11.68;;;;;;;;;;4983565;28;20439;-82
2021/03/18 04:42:41;;;;;;;29.05;12.52;;;;;;;;;;5003867;28;20038;-81
2021/03/18 04:45:08;;;;;;;37.42;13.48;;;;;;;;;;5000747;28;20034;-82
2021/03/18 04:47:35;;;;;;;34.30;12.63;;;;;;;;;;5007464;28;20037;-80
2021/03/18 04:50:03;;;;;;;28.80;11.60;;;;;;;;;;4991184;28;20049;-82
2021/03/18 04:52:29;;;;;;;29.05;11.25;;;;;;;;;;4992567;28;20481;-82
2021/03/18 04:54:55;;;;;;;32.95;10.57;;;;;;;;;;4964845;28;20050;-82
2021/03/18 04:57:23;;;;;;;29.23;12.55;;;;;;;;;;4993602;28;20088;-82
2021/03/18 04:59:53;;;;;;;35.00;12.13;;;;;;;;;;4988599;28;20317;-82
2021/03/18 05:02:20;;;;;;;32.92;12.13;;;;;;;;;;4987272;28;20049;-83
2021/03/18 05:04:46;;;;;;;27.13;11.05;;;;;;;;;;4980274;28;20057;-82
2021/03/18 05:07:13;;;;;;;31.77;12.40;;;;;;;;;;4972995;28;20054;-82
2021/03/18 05:09:40;;;;;;;25.65;11.43;;;;;;;;;;4989263;28;20069;-82
2021/03/18 05:12:07;;;;;;;23.80;9.57;;;;;;;;;;4995944;28;20042;-82
2021/03/18 05:14:34;;;;;;;19.60;10.18;;;;;;;;;;4986539;28;20061;-82
2021/03/18 05:17:00;;;;;;;27.92;10.13;;;;;;;;;;5004564;28;20092;-83
2021/03/18 05:19:26;;;;;;;24.15;12.18;;;;;;;;;;5003514;28;20038;-83
2021/03/18 05:21:53;;;;;;;25.95;12.73;;;;;;;;;;5007343;28;20073;-82
2021/03/18 05:24:19;;;;;;;40.75;12.55;;;;;;;;;;4997067;28;20034;-82
2021/03/18 05:26:46;;;;;;;25.75;11.18;;;;;;;;;;5002635;28;20145;-81
2021/03/18 05:29:13;;;;;;;34.45;12.27;;;;;;;;;;5007774;28;20046;-82
2021/03/18 05:31:39;;;;;;;31.08;12.00;;;;;;;;;;5002251;28;20121;-83
2021/03/18 05:34:06;;;;;;;33.65;12.32;;;;;;;;;;4990686;28;20038;-81
2021/03/18 05:36:32;;;;;;;28.38;11.25;;;;;;;;;;5003730;28;20033;-82
2021/03/18 05:38:59;;;;;;;22.55;11.25;;;;;;;;;;4994234;28;20125;-82
2021/03/18 05:41:26;;;;;;;31.25;12.23;;;;;;;;;;4986731;28;20478;-83
2021/03/18 05:43:53;;;;;;;29.70;11.40;;;;;;;;;;4992061;28;20046;-84
2021/03/18 05:46:19;;;;;;;29.40;11.38;;;;;;;;;;4995322;28;20038;-83
2021/03/18 05:48:45;;;;;;;27.83;11.65;;;;;;;;;;4998566;28;20045;-82
2021/03/18 05:51:18;;;;;;;28.85;13.48;;;;;;;;;;5001380;28;20434;-82
2021/03/18 05:53:45;;;;;;;31.75;13.68;;;;;;;;;;5000144;28;20085;-82
2021/03/18 05:56:19;;;;;;;28.42;12.35;;;;;;;;;;4981472;28;20145;-84
2021/03/18 05:58:47;;;;;;;29.42;12.80;;;;;;;;;;4989670;28;20042;-82
2021/03/18 06:01:13;;;;;;;28.48;13.90;;;;;;;;;;4997178;28;20046;-83
2021/03/18 06:03:40;;;;;;;28.08;12.40;;;;;;;;;;4996852;28;20342;-83
2021/03/18 06:06:06;;;;;;;25.33;11.85;;;;;;;;;;4994831;28;20068;-83
2021/03/18 06:08:38;;;;;;;27.33;13.68;;;;;;;;;;4999138;28;20084;-84
2021/03/18 06:11:05;;;;;;;32.35;12.73;;;;;;;;;;5003460;28;20053;-83
2021/03/18 06:13:32;;;;;;;22.70;11.40;;;;;;;;;;4974687;28;20481;-82
2021/03/18 06:15:58;;;;;;;28.95;12.68;;;;;;;;;;4978687;28;20042;-83
2021/03/18 06:18:24;;;;;;;24.00;11.43;;;;;;;;;;4996524;28;20048;-84
2021/03/18 06:20:54;;;;;;;23.02;9.57;;;;;;;;;;4993524;28;20066;-83
2021/03/18 06:23:21;;;;;;;26.90;13.20;;;;;;;;;;5009628;28;20053;-84
2021/03/18 06:25:48;;;;;;;25.65;11.30;;;;;;;;;;4981996;28;20050;-82
2021/03/18 06:28:26;;;;;;;29.40;11.50;;;;;;;;;;4986214;28;20072;-84
2021/03/18 06:30:56;;;;;;;28.45;12.68;;;;;;;;;;4990367;28;20042;-83
2021/03/18 06:33:24;;;;;;;29.58;12.65;;;;;;;;;;4994080;28;20073;-85
2021/03/18 06:35:50;;;;;;;24.33;11.63;;;;;;;;;;5001405;28;20068;-82
2021/03/18 06:38:16;;;;;;;29.33;12.73;;;;;;;;;;5007063;28;20030;-85
2021/03/18 06:40:46;;;;;;;24.95;9.95;;;;;;;;;;5008988;28;20039;-83
2021/03/18 06:43:13;;;;;;;30.90;11.00;;;;;;;;;;4993034;28;20041;-84
2021/03/18 06:45:41;;;;;;;34.95;12.30;;;;;;;;;;4995308;28;20120;-84
2021/03/18 06:48:15;;;;;;;34.53;14.07;;;;;;;;;;4996076;28;20092;-83
2021/03/18 06:50:43;;;;;;;41.13;18.35;;;;;;;;;;4997605;28;20128;-83
2021/03/18 06:53:20;;;;;;;34.78;14.43;;;;;;;;;;4992520;28;20535;-85
2021/03/18 06:55:46;;;;;;;40.80;16.27;;;;;;;;;;4992010;28;20081;-83
2021/03/18 06:58:13;;;;;;;33.95;15.32;;;;;;;;;;4985747;28;20093;-84
2021/03/18 07:00:40;;;;;;;27.70;12.93;;;;;;;;;;4992085;28;20416;-83
2021/03/18 07:03:09;;;;;;;39.28;14.55;;;;;;;;;;4993977;28;20042;-84
2021/03/18 07:05:39;;;;;;;36.45;13.77;;;;;;;;;;4993082;28;20075;-84
2021/03/18 07:08:06;;;;;;;30.92;14.13;;;;;;;;;;4975737;28;20049;-84
2021/03/18 07:10:33;;;;;;;34.60;12.25;;;;;;;;;;4993181;28;20038;-82
2021/03/18 07:13:19;;;;;;;31.00;12.48;;;;;;;;;;4992149;28;20042;-84
2021/03/18 07:15:46;;;;;;;28.23;12.00;;;;;;;;;;5007831;28;20044;-82
2021/03/18 07:18:13;;;;;;;37.88;12.25;;;;;;;;;;5005325;28;20125;-82
2021/03/18 07:20:47;;;;;;;31.40;12.82;;;;;;;;;;4985210;28;20112;-82
2021/03/18 07:23:16;;;;;;;30.60;15.10;;;;;;;;;;4990848;28;20030;-82
2021/03/18 07:25:47;;;;;;;33.65;11.95;;;;;;;;;;4994162;28;20057;-81
2021/03/18 07:28:14;;;;;;;33.58;15.13;;;;;;;;;;5002717;28;20138;-82
2021/03/18 07:30:42;;;;;;;26.00;12.30;;;;;;;;;;4987613;28;20133;-82
2021/03/18 07:33:08;;;;;;;32.17;11.88;;;;;;;;;;5000853;28;20042;-82
2021/03/18 07:35:35;;;;;;;32.88;13.88;;;;;;;;;;5008029;28;20482;-83
2021/03/18 07:38:02;;;;;;;36.28;13.52;;;;;;;;;;5005884;28;20491;-81
2021/03/18 07:40:28;;;;;;;36.88;12.52;;;;;;;;;;4985168;28;20041;-83
2021/03/18 07:42:55;;;;;;;33.05;12.73;;;;;;;;;;4991679;28;20077;-81
2021/03/18 07:45:23;;;;;;;33.40;12.27;;;;;;;;;;4987084;28;20497;-82
2021/03/18 07:47:49;;;;;;;32.90;12.95;;;;;;;;;;5006101;28;20431;-81
2021/03/18 07:50:17;;;;;;;30.70;13.13;;;;;;;;;;5003108;28;20049;-82
2021/03/18 07:52:44;;;;;;;38.33;14.25;;;;;;;;;;4991304;28;20046;-82
2021/03/18 07:55:12;;;;;;;35.97;12.55;;;;;;;;;;4984864;28;20412;-88
2021/03/18 07:57:51;;;;;;;38.28;13.50;;;;;;;;;;4995404;28;20100;-81
2021/03/18 08:00:17;;;;;;;40.55;13.27;;;;;;;;;;4991956;28;20100;-86
2021/03/18 08:02:45;;;;;;;39.75;12.27;;;;;;;;;;5010607;28;20052;-83
2021/03/18 08:05:12;;;;;;;26.90;13.48;;;;;;;;;;4994193;28;20042;-81
2021/03/18 08:07:48;;;;;;;37.78;15.45;;;;;;;;;;5004599;28;20034;-85
2021/03/18 08:10:14;;;;;;;35.35;13.18;;;;;;;;;;5014849;28;20073;-82
2021/03/18 08:12:41;;;;;;;37.22;12.80;;;;;;;;;;5014642;28;20362;-86
2021/03/18 08:15:19;;;;;;;34.38;12.73;;;;;;;;;;5012164;28;20048;-87
2021/03/18 08:17:46;;;;;;;35.80;11.05;;;;;;;;;;5007334;28;20042;-86
2021/03/18 08:20:12;;;;;;;34.05;11.02;;;;;;;;;;4993613;28;20056;-87
2021/03/18 08:22:38;;;;;;;32.60;11.20;;;;;;;;;;5012011;28;20048;-85
2021/03/18 08:25:21;;;;;;;38.38;12.18;;;;;;;;;;5010635;28;20494;-85
2021/03/18 08:27:47;;;;;;;28.17;9.30;;;;;;;;;;5008157;28;20179;-84
2021/03/18 08:30:20;;;;;;;40.20;10.25;;;;;;;;;;5007696;28;20042;-83
2021/03/18 08:32:46;;;;;;;34.35;11.07;;;;;;;;;;5002440;28;20045;-75
2021/03/18 08:35:24;;;;;;;34.15;11.40;;;;;;;;;;4992111;28;20045;-86
2021/03/18 08:37:51;;;;;;;39.50;13.88;;;;;;;;;;4990795;28;20046;-81
2021/03/18 08:40:20;;;;;;;37.28;10.88;;;;;;;;;;4994543;28;20046;-76
2021/03/18 08:42:47;;;;;;;30.90;8.70;;;;;;;;;;5003489;28;20057;-79
2021/03/18 08:45:19;;;;;;;65.55;31.45;;;;;;;;;;5005258;28;20052;-75
2021/03/18 08:47:51;;;;;;;47.03;16.23;;;;;;;;;;5004580;28;20042;-82
2021/03/18 08:50:26;;;;;;;32.60;9.07;;;;;;;;;;5009699;28;20493;-79
2021/03/18 08:52:55;;;;;;;30.95;8.30;;;;;;;;;;5016102;28;20072;-83
2021/03/18 08:55:34;;;;;;;31.67;9.57;;;;;;;;;;5001002;28;20137;-74
2021/03/18 08:58:00;;;;;;;37.33;9.25;;;;;;;;;;5016701;28;20077;-74
2021/03/18 09:00:26;;;;;;;27.88;7.32;;;;;;;;;;5006587;28;20288;-76
2021/03/18 09:02:53;;;;;;;35.00;6.75;;;;;;;;;;4993511;28;20042;-83
2021/03/18 09:05:20;;;;;;;33.13;7.50;;;;;;;;;;4969955;28;20041;-83
2021/03/18 09:07:51;;;;;;;31.70;7.05;;;;;;;;;;4992277;28;20034;-81
2021/03/18 09:10:19;;;;;;;35.97;8.20;;;;;;;;;;5005881;28;20064;-81
2021/03/18 09:12:59;;;;;;;39.78;7.07;;;;;;;;;;4993929;28;20069;-82
2021/03/18 09:15:28;;;;;;;31.75;5.55;;;;;;;;;;4990210;28;20170;-74
2021/03/18 09:17:55;;;;;;;32.95;5.70;;;;;;;;;;4989455;28;20080;-76
2021/03/18 09:20:24;;;;;;;24.27;5.00;;;;;;;;;;5006888;28;20038;-78
2021/03/18 09:22:50;;;;;;;31.52;5.28;;;;;;;;;;5012304;28;20096;-81
2021/03/18 09:25:16;;;;;;;28.40;4.32;;;;;;;;;;5003739;28;20071;-77
2021/03/18 09:27:44;;;;;;;30.90;4.00;;;;;;;;;;5008020;28;20127;-73
2021/03/18 09:30:30;;;;;;;24.30;4.35;;;;;;;;;;5003545;28;20050;-81
2021/03/18 09:32:56;;;;;;;26.75;4.20;;;;;;;;;;5001610;28;20056;-74
2021/03/18 09:35:23;;;;;;;26.67;3.97;;;;;;;;;;4991153;28;20096;-78
2021/03/18 09:37:50;;;;;;;21.33;3.58;;;;;;;;;;4994793;28;20496;-84
2021/03/18 09:40:16;;;;;;;18.08;3.05;;;;;;;;;;4995596;28;20041;-72
2021/03/18 09:42:43;;;;;;;23.63;3.58;;;;;;;;;;5008473;28;20037;-81
2021/03/18 09:45:09;;;;;;;23.98;3.60;;;;;;;;;;4988098;28;20116;-81
2021/03/18 09:47:37;;;;;;;17.98;2.80;;;;;;;;;;5006011;28;20580;-84
2021/03/18 09:50:04;;;;;;;20.40;2.92;;;;;;;;;;4975742;28;20377;-84
2021/03/18 09:52:30;;;;;;;21.33;3.72;;;;;;;;;;5000859;28;20038;-81
2021/03/18 09:54:57;;;;;;;17.38;3.03;;;;;;;;;;5001403;28;20199;-81
2021/03/18 09:57:27;;;;;;;18.42;3.30;;;;;;;;;;4996099;28;20077;-82
2021/03/18 09:59:54;;;;;;;21.90;4.13;;;;;;;;;;4981918;28;20057;-80
2021/03/18 10:02:25;;;;;;;17.67;3.25;;;;;;;;;;5002982;28;20030;-81
2021/03/18 10:04:52;;;;;;;18.02;2.90;;;;;;;;;;5004916;28;20030;-79
2021/03/18 10:07:18;;;;;;;16.05;3.10;;;;;;;;;;4994158;28;20433;-79
2021/03/18 10:09:46;;;;;;;20.80;2.75;;;;;;;;;;4980991;28;20125;-80
2021/03/18 10:12:18;;;;;;;17.13;2.88;;;;;;;;;;4998874;28;20338;-80
2021/03/18 10:14:53;;;;;;;22.98;3.75;;;;;;;;;;5006666;28;20037;-77
2021/03/18 10:17:26;;;;;;;14.60;2.50;;;;;;;;;;5001656;28;20037;-78
2021/03/18 10:19:52;;;;;;;17.02;2.70;;;;;;;;;;5003646;28;20417;-75
2021/03/18 10:22:20;;;;;;;18.17;3.17;;;;;;;;;;5001743;28;20036;-75
2021/03/18 10:24:57;;;;;;;12.60;2.40;;;;;;;;;;5008364;28;20038;-74
2021/03/18 10:27:23;;;;;;;16.70;3.13;;;;;;;;;;5005058;28;20037;-74
2021/03/18 10:29:49;;;;;;;15.45;2.30;;;;;;;;;;5008884;28;20046;-77
2021/03/18 10:32:19;;;;;;;15.65;2.90;;;;;;;;;;5004970;28;20064;-75
2021/03/18 10:34:55;;;;;;;19.77;3.22;;;;;;;;;;4998888;28;20038;-75
2021/03/18 10:37:27;;;;;;;15.63;2.70;;;;;;;;;;5007466;28;20042;-72
2021/03/18 10:40:08;;;;;;;15.90;3.33;;;;;;;;;;5004350;28;20498;-76
2021/03/18 10:42:35;;;;;;;15.63;3.55;;;;;;;;;;4987426;28;20112;-75
2021/03/18 10:45:21;;;;;;;22.45;2.70;;;;;;;;;;5001191;28;20084;-76
2021/03/18 10:47:48;;;;;;;12.82;2.40;;;;;;;;;;4999745;28;20590;-76
2021/03/18 10:50:15;;;;;;;14.15;2.47;;;;;;;;;;4976066;28;20048;-75
2021/03/18 10:52:50;;;;;;;17.40;3.25;;;;;;;;;;4990932;28;20050;-78
2021/03/18 10:55:21;;;;;;;27.38;3.60;;;;;;;;;;5011217;28;20538;-77
2021/03/18 10:57:53;;;;;;;20.00;3.38;;;;;;;;;;5010905;28;20049;-77
2021/03/18 11:00:20;;;;;;;22.23;5.35;;;;;;;;;;5013256;28;20034;-80
2021/03/18 11:02:56;;;;;;;16.77;3.00;;;;;;;;;;5006951;28;20042;-79
2021/03/18 11:05:28;;;;;;;18.95;3.10;;;;;;;;;;5006619;28;20069;-80
2021/03/18 11:07:55;;;;;;;17.88;2.92;;;;;;;;;;4991429;28;20095;-79
2021/03/18 11:10:21;;;;;;;22.92;3.25;;;;;;;;;;5003594;28;20042;-81
2021/03/18 11:13:03;;;;;;;22.13;3.85;;;;;;;;;;4996300;28;20376;-83
2021/03/18 11:15:42;;;;;;;18.67;2.97;;;;;;;;;;5003597;28;20045;-81
2021/03/18 11:18:09;;;;;;;16.73;3.08;;;;;;;;;;5004486;28;20489;-80
2021/03/18 11:20:37;;;;;;;14.55;2.50;;;;;;;;;;4999463;28;20081;-79
2021/03/18 11:23:04;;;;;;;18.13;2.90;;;;;;;;;;4992877;28;20052;-81
2021/03/18 11:25:30;;;;;;;16.10;3.85;;;;;;;;;;4998185;28;20477;-87
2021/03/18 11:27:56;;;;;;;20.90;3.50;;;;;;;;;;4999767;28;20050;-85
2021/03/18 11:30:27;;;;;;;18.50;3.35;;;;;;;;;;4986024;28;20033;-78
2021/03/18 11:33:11;;;;;;;17.92;3.00;;;;;;;;;;4984296;28;20042;-77
2021/03/18 11:35:38;;;;;;;18.98;3.53;;;;;;;;;;5010971;28;20417;-79
2021/03/18 11:38:04;;;;;;;20.35;3.00;;;;;;;;;;5008368;28;20064;-74
2021/03/18 11:40:31;;;;;;;18.77;4.20;;;;;;;;;;5002776;28;20053;-84
2021/03/18 11:42:57;;;;;;;19.70;3.70;;;;;;;;;;5003356;28;20053;-85
2021/03/18 11:45:23;;;;;;;17.58;3.10;;;;;;;;;;5005556;28;20470;-72
2021/03/18 11:47:49;;;;;;;17.02;2.95;;;;;;;;;;4988708;28;20426;-77
2021/03/18 11:50:15;;;;;;;15.00;3.22;;;;;;;;;;5005889;28;20097;-76
2021/03/18 11:52:42;;;;;;;17.08;2.88;;;;;;;;;;4992939;28;20444;-75
2021/03/18 11:55:09;;;;;;;23.83;3.75;;;;;;;;;;5003430;28;20398;-74
2021/03/18 11:57:35;;;;;;;18.90;3.28;;;;;;;;;;4993597;28;20060;-75
2021/03/18 12:00:01;;;;;;;18.58;4.10;;;;;;;;;;5005233;28;20436;-75
2021/03/18 12:02:27;;;;;;;20.40;3.35;;;;;;;;;;5004346;28;20444;-80
2021/03/18 12:04:54;;;;;;;18.63;3.33;;;;;;;;;;4983030;28;20057;-77
2021/03/18 12:07:21;;;;;;;19.75;3.30;;;;;;;;;;4994434;28;20068;-80
2021/03/18 12:09:47;;;;;;;23.33;4.30;;;;;;;;;;5012248;28;20054;-78
2021/03/18 12:12:13;;;;;;;22.63;3.53;;;;;;;;;;4985053;28;20436;-74
2021/03/18 12:14:39;;;;;;;20.98;3.47;;;;;;;;;;4973080;28;20046;-77
2021/03/18 12:17:06;;;;;;;20.95;3.05;;;;;;;;;;5004728;28;20093;-77
2021/03/18 12:19:32;;;;;;;17.70;3.80;;;;;;;;;;5003946;28;20042;-77
2021/03/18 12:21:58;;;;;;;16.63;3.67;;;;;;;;;;4990188;28;20050;-79
2021/03/18 12:24:24;;;;;;;24.05;3.65;;;;;;;;;;4986213;28;20070;-80
2021/03/18 12:26:50;;;;;;;24.23;3.88;;;;;;;;;;4988378;28;20050;-82
2021/03/18 12:29:16;;;;;;;17.63;3.67;;;;;;;;;;5001845;28;20038;-77
2021/03/18 12:31:42;;;;;;;21.10;3.80;;;;;;;;;;4993259;28;20076;-72
2021/03/18 12:34:08;;;;;;;18.50;3.67;;;;;;;;;;4989663;28;20397;-70
2021/03/18 12:36:36;;;;;;;22.95;3.85;;;;;;;;;;5007198;28;20053;-73
2021/03/18 12:39:03;;;;;;;17.90;3.05;;;;;;;;;;5012009;28;20068;-76
2021/03/18 12:41:29;;;;;;;23.83;4.38;;;;;;;;;;5000775;28;20042;-76
2021/03/18 12:43:55;;;;;;;23.77;4.07;;;;;;;;;;4978157;28;20465;-74
2021/03/18 12:46:22;;;;;;;19.83;3.42;;;;;;;;;;5009712;28;20048;-75
2021/03/18 12:48:48;;;;;;;20.50;3.85;;;;;;;;;;4993413;28;20081;-78
2021/03/18 12:51:14;;;;;;;19.98;3.65;;;;;;;;;;5009803;28;20077;-82
2021/03/18 12:53:41;;;;;;;19.77;3.47;;;;;;;;;;5001615;28;20592;-78
2021/03/18 12:56:07;;;;;;;36.35;5.25;;;;;;;;;;5006571;28;20053;-77
2021/03/18 12:58:33;;;;;;;18.65;3.50;;;;;;;;;;5008610;28;20342;-75
2021/03/18 13:00:59;;;;;;;20.88;3.63;;;;;;;;;;5009889;28;20041;-74
2021/03/18 13:03:25;;;;;;;19.63;3.67;;;;;;;;;;5009411;28;20107;-73
2021/03/18 13:05:51;;;;;;;17.02;3.05;;;;;;;;;;4987517;28;20041;-77
2021/03/18 13:08:18;;;;;;;21.25;3.45;;;;;;;;;;5001466;28;20047;-73
2021/03/18 13:10:44;;;;;;;25.95;3.80;;;;;;;;;;4994756;28;20050;-73
2021/03/18 13:13:11;;;;;;;18.95;4.38;;;;;;;;;;5004416;28;20050;-77
2021/03/18 13:15:37;;;;;;;18.15;3.30;;;;;;;;;;4994399;28;20042;-78
2021/03/18 13:18:03;;;;;;;22.60;3.85;;;;;;;;;;5006211;28;20054;-75
2021/03/18 13:20:29;;;;;;;26.85;3.50;;;;;;;;;;5006920;28;20046;-74
2021/03/18 13:22:55;;;;;;;22.55;3.33;;;;;;;;;;5004578;28;20046;-74
2021/03/18 13:25:22;;;;;;;20.15;3.78;;;;;;;;;;4970029;28;20460;-75
2021/03/18 13:27:48;;;;;;;23.25;3.22;;;;;;;;;;5002087;28;20201;-79
2021/03/18 13:30:19;;;;;;;19.83;3.85;;;;;;;;;;4991898;28;20046;-74
2021/03/18 13:32:45;;;;;;;15.85;3.50;;;;;;;;;;4998586;28;20354;-76
2021/03/18 13:35:12;;;;;;;15.52;3.17;;;;;;;;;;5010719;28;20053;-75
2021/03/18 13:37:38;;;;;;;16.23;2.63;;;;;;;;;;4988512;28;20379;-77
2021/03/18 13:40:05;;;;;;;16.25;3.03;;;;;;;;;;4974415;28;20050;-76
2021/03/18 13:42:34;;;;;;;16.13;2.67;;;;;;;;;;4997076;28;20096;-79
2021/03/18 13:45:01;;;;;;;17.50;2.97;;;;;;;;;;5009263;28;20053;-81
2021/03/18 13:47:27;;;;;;;19.58;2.97;;;;;;;;;;5011717;28;20091;-79
2021/03/18 13:49:53;;;;;;;17.67;2.72;;;;;;;;;;5011641;28;20042;-78
2021/03/18 13:52:19;;;;;;;18.10;2.92;;;;;;;;;;5011187;28;20041;-74
2021/03/18 13:54:46;;;;;;;10.95;2.42;;;;;;;;;;5011731;28;20540;-75
2021/03/18 13:57:12;;;;;;;19.10;2.80;;;;;;;;;;5009928;28;20053;-75
2021/03/18 13:59:39;;;;;;;11.60;2.45;;;;;;;;;;5010984;28;20481;-75
2021/03/18 14:02:05;;;;;;;16.73;2.55;;;;;;;;;;5006436;28;20449;-75
2021/03/18 14:04:31;;;;;;;13.85;2.67;;;;;;;;;;4993026;28;20042;-76
2021/03/18 14:06:58;;;;;;;18.52;2.63;;;;;;;;;;5005870;28;20065;-79
2021/03/18 14:09:25;;;;;;;14.27;2.92;;;;;;;;;;5003769;28;20505;-76
2021/03/18 14:11:51;;;;;;;14.35;2.03;;;;;;;;;;5008431;28;20056;-75
2021/03/18 14:14:17;;;;;;;11.15;2.08;;;;;;;;;;5009149;28;20045;-75
2021/03/18 14:16:44;;;;;;;16.13;2.45;;;;;;;;;;5004690;28;20045;-80
2021/03/18 14:19:10;;;;;;;12.05;2.47;;;;;;;;;;5004172;28;20315;-78
2021/03/18 14:21:37;;;;;;;9.57;2.58;;;;;;;;;;5008251;28;20061;-74
2021/03/18 14:24:04;;;;;;;12.80;1.90;;;;;;;;;;4986012;28;20041;-70
2021/03/18 14:26:31;;;;;;;9.80;2.00;;;;;;;;;;5008826;28;20042;-73
2021/03/18 14:28:57;;;;;;;6.47;1.60;;;;;;;;;;5007782;28;20065;-73
2021/03/18 14:31:23;;;;;;;9.82;1.77;;;;;;;;;;5007751;28;20200;-73